This is the latest recevied weather packets stored in our database for station/object SP3TOM-10. If no packets are shown the sender has not sent any weather packets the latest 1 day(s).
| Time | Temp. | Humidity | Pressure | Rain* | Wind** | Luminosity | Snow |
|---|---|---|---|---|---|---|---|
| 1778100466 | 17.22° C | 46% | 996.9 hPa | - | - | - | - |
| 1778099566 | 17.22° C | 47% | 996.9 hPa | - | - | - | - |
| 1778094166 | 18.89° C | 43% | 996.5 hPa | - | - | - | - |
| 1778090564 | 18.89° C | 46% | 995.8 hPa | - | - | - | - |
| 1778087863 | 20° C | 45% | 995.8 hPa | - | - | - | - |
| 1778086963 | 20° C | 46% | 995.7 hPa | - | - | - | - |
| 1778086063 | 20.56° C | 45% | 995.4 hPa | - | - | - | - |
| 1778085163 | 20.56° C | 45% | 995.5 hPa | - | - | - | - |
| 1778082462 | 22.22° C | 43% | 995.3 hPa | - | - | - | - |
| 1778081562 | 22.78° C | 42% | 995.2 hPa | - | - | - | - |
| 1778080662 | 23.33° C | 41% | 995.1 hPa | - | - | - | - |
| 1778079762 | 23.33° C | 41% | 995.1 hPa | - | - | - | - |
| 1778075261 | 24.44° C | 42% | 994.2 hPa | - | - | - | - |
| 1778074361 | 22.22° C | 47% | 994.1 hPa | - | - | - | - |
| 1778069860 | 20° C | 49% | 993.9 hPa | - | - | - | - |
| 1778068960 | 20° C | 49% | 993.8 hPa | - | - | - | - |
| 1778064459 | 20.56° C | 48% | 993.9 hPa | - | - | - | - |
| 1778063559 | 20° C | 48% | 993.9 hPa | - | - | - | - |
| 1778060858 | 19.44° C | 49% | 993.9 hPa | - | - | - | - |
| 1778059958 | 18.89° C | 48% | 993.9 hPa | - | - | - | - |
| 1778059058 | 18.89° C | 49% | 993.9 hPa | - | - | - | - |
| 1778058158 | 18.33° C | 49% | 993.8 hPa | - | - | - | - |
| 1778054557 | 17.78° C | 48% | 993.7 hPa | - | - | - | - |
| 1778053657 | 17.78° C | 47% | 993.8 hPa | - | - | - | - |
| 1778052757 | 17.22° C | 50% | 993.8 hPa | - | - | - | - |
* Rain since midnight (hover to see other rain measurements)
** Current wind speed in m/s (hover to see current wind gust speed)